createdAt,value
2019-01-21T00:02:35.889Z,63.77
2019-01-21T00:05:42.717Z,66.70
2019-01-21T00:08:48.422Z,63.03
2019-01-21T00:11:54.131Z,66.57
2019-01-21T00:14:59.839Z,59.97
2019-01-21T00:18:06.219Z,60.50
2019-01-21T00:21:11.968Z,70.03
2019-01-21T00:24:17.732Z,68.03
2019-01-21T00:27:24.517Z,74.17
2019-01-21T00:30:30.239Z,69.10
2019-01-21T00:33:35.943Z,61.90
2019-01-21T00:36:41.648Z,62.70
2019-01-21T00:39:47.356Z,64.33
2019-01-21T00:42:53.176Z,68.27
2019-01-21T00:45:58.889Z,64.27
2019-01-21T00:49:04.717Z,58.03
2019-01-21T00:52:10.445Z,59.73
2019-01-21T00:55:16.348Z,55.90
2019-01-21T00:58:22.265Z,59.03
2019-01-21T01:01:28.054Z,63.27
2019-01-21T01:04:33.752Z,62.07
2019-01-21T01:07:40.389Z,69.83
2019-01-21T01:10:46.092Z,68.53
2019-01-21T01:13:51.767Z,67.47
2019-01-21T01:16:57.501Z,62.33
2019-01-21T01:20:03.327Z,65.27
2019-01-21T01:23:09.158Z,62.80
2019-01-21T01:26:14.872Z,77.10
2019-01-21T01:29:20.601Z,64.63
2019-01-21T01:32:26.311Z,67.20
2019-01-21T01:35:33.121Z,67.60
2019-01-21T01:38:38.839Z,69.90
2019-01-21T01:41:44.575Z,71.00
2019-01-21T01:44:50.513Z,90.60
2019-01-21T01:48:03.108Z,81.97
2019-01-21T01:51:08.974Z,60.73
2019-01-21T01:54:14.820Z,64.50
2019-01-21T01:57:20.726Z,57.70
2019-01-21T02:00:26.683Z,64.90
2019-01-21T02:03:32.376Z,59.60
2019-01-21T02:06:38.165Z,53.83
2019-01-21T02:09:43.983Z,57.07
2019-01-21T02:12:49.888Z,53.60
2019-01-21T02:15:56.694Z,49.70
2019-01-21T02:19:02.780Z,48.37
2019-01-21T02:22:09.399Z,46.70
2019-01-21T02:25:15.635Z,42.63
2019-01-21T02:28:27.757Z,47.97
2019-01-21T02:31:58.430Z,45.43
2019-01-21T02:35:29.256Z,45.63
2019-01-21T02:39:20.419Z,40.97
2019-01-21T02:42:42.717Z,42.07
2019-01-21T02:47:02.565Z,44.10
2019-01-21T02:50:41.547Z,41.00
2019-01-21T02:54:27.907Z,42.27
2019-01-21T02:58:07.576Z,45.83
2019-01-21T03:01:51.678Z,45.10
2019-01-21T03:05:34.827Z,40.53
2019-01-21T03:09:27.281Z,39.30
2019-01-21T03:13:25.864Z,34.27
2019-01-21T03:17:07.742Z,32.70
2019-01-21T03:20:48.625Z,29.97
2019-01-21T03:24:56.167Z,32.77
2019-01-21T03:28:37.248Z,30.57
2019-01-21T03:32:24.629Z,27.17
2019-01-21T03:36:02.471Z,31.23
2019-01-21T03:39:46.107Z,29.10
2019-01-21T03:42:59.131Z,31.47
2019-01-21T03:46:21.201Z,30.60
2019-01-21T03:49:44.437Z,37.70
2019-01-21T03:53:26.862Z,35.47
2019-01-21T03:57:08.889Z,35.20
2019-01-21T04:00:23.373Z,37.43
2019-01-21T04:04:05.641Z,37.13
2019-01-21T04:07:42.651Z,41.43
2019-01-21T04:11:26.524Z,33.17
2019-01-21T04:14:56.483Z,33.50
2019-01-21T04:18:48.148Z,30.40
2019-01-21T04:22:21.126Z,30.53
2019-01-21T04:26:19.567Z,30.53
2019-01-21T04:30:13.965Z,27.40
2019-01-21T04:34:15.490Z,32.07
2019-01-21T04:38:05.801Z,32.67
2019-01-21T04:41:21.576Z,33.30
2019-01-21T04:44:54.373Z,37.00
2019-01-21T04:48:21.621Z,38.77
2019-01-21T04:52:10.259Z,36.17
2019-01-21T04:55:44.637Z,36.13
2019-01-21T04:59:37.290Z,38.30
2019-01-21T05:03:54.306Z,43.03
2019-01-21T05:07:26.577Z,45.23
2019-01-21T05:11:20.822Z,40.43
2019-01-21T05:15:07.227Z,36.90
2019-01-21T05:18:43.520Z,39.50
2019-01-21T05:22:19.303Z,39.07
2019-01-21T05:25:52.603Z,59.57
2019-01-21T05:29:34.894Z,50.27
2019-01-21T05:33:02.294Z,50.67
2019-01-21T05:36:44.608Z,47.40
2019-01-21T05:40:17.326Z,41.17
2019-01-21T05:44:05.859Z,31.77
2019-01-21T05:47:57.008Z,33.27
2019-01-21T05:51:40.943Z,35.40
2019-01-21T05:55:21.244Z,32.33
2019-01-21T05:59:13.479Z,30.80
2019-01-21T06:03:11.961Z,39.03
2019-01-21T06:07:07.483Z,41.23
2019-01-21T06:10:28.284Z,96.03
2019-01-21T06:14:32.770Z,293.07
2019-01-21T06:17:56.066Z,127.57
2019-01-21T06:21:42.134Z,63.00
2019-01-21T06:25:44.647Z,57.47
2019-01-21T06:29:28.207Z,45.13
2019-01-21T06:33:06.406Z,43.17
2019-01-21T06:36:58.879Z,38.87
2019-01-21T06:40:50.121Z,33.93
2019-01-21T06:44:31.553Z,36.93
2019-01-21T06:48:23.944Z,27.93
2019-01-21T06:51:54.953Z,26.10
2019-01-21T06:55:53.735Z,26.07
2019-01-21T06:59:23.881Z,32.33
2019-01-21T07:02:55.369Z,29.77
2019-01-21T07:06:40.584Z,37.27
2019-01-21T07:10:09.884Z,38.73
2019-01-21T07:13:49.096Z,35.87
2019-01-21T07:17:04.474Z,33.87
2019-01-21T07:20:56.994Z,30.80
2019-01-21T07:24:43.250Z,32.20
2019-01-21T07:28:23.243Z,37.50
2019-01-21T07:31:35.202Z,36.87
2019-01-21T07:35:26.297Z,46.70
2019-01-21T07:38:56.312Z,57.17
2019-01-21T07:42:31.491Z,58.87
2019-01-21T07:46:14.328Z,53.57
2019-01-21T07:50:03.943Z,45.13
2019-01-21T07:53:42.442Z,44.83
2019-01-21T07:57:41.826Z,45.13
2019-01-21T08:01:27.249Z,45.07
2019-01-21T08:05:24.763Z,49.63
2019-01-21T08:09:10.131Z,45.57
2019-01-21T08:12:53.769Z,48.03
2019-01-21T08:16:33.176Z,47.80
2019-01-21T08:20:17.238Z,48.20
2019-01-21T08:23:58.431Z,46.07
2019-01-21T08:27:38.171Z,50.87
2019-01-21T08:31:14.501Z,48.07
2019-01-21T08:34:38.934Z,54.60
2019-01-21T08:38:40.743Z,65.67
2019-01-21T08:42:39.374Z,117.80
2019-01-21T08:46:29.503Z,59.70
2019-01-21T08:50:01.525Z,63.20
2019-01-21T08:53:23.345Z,66.37
2019-01-21T08:56:59.492Z,64.80
2019-01-21T09:01:04.163Z,69.57
2019-01-21T09:04:56.401Z,77.67
2019-01-21T09:08:37.935Z,75.20
2019-01-21T09:12:33.483Z,66.77
2019-01-21T09:16:11.784Z,78.67
2019-01-21T09:19:49.000Z,77.33
2019-01-21T09:23:38.746Z,68.67
2019-01-21T09:27:12.469Z,63.07
2019-01-21T09:30:37.297Z,54.67
2019-01-21T09:34:23.009Z,53.30
2019-01-21T09:38:33.634Z,47.17
2019-01-21T09:41:59.237Z,39.73
2019-01-21T09:46:13.125Z,37.20
2019-01-21T09:49:16.933Z,44.03
2019-01-21T09:52:24.032Z,39.57
2019-01-21T09:55:30.165Z,40.20
2019-01-21T09:58:36.082Z,38.93
2019-01-21T10:01:42.780Z,36.60
2019-01-21T10:05:03.644Z,33.30
2019-01-21T10:08:33.952Z,32.53
2019-01-21T10:12:35.415Z,30.33
2019-01-21T10:16:00.585Z,32.23
2019-01-21T10:19:50.735Z,40.37
2019-01-21T10:23:14.426Z,34.77
2019-01-21T10:27:06.115Z,39.73
2019-01-21T10:30:43.907Z,38.60
2019-01-21T10:34:34.039Z,37.20
2019-01-21T10:38:28.428Z,39.47
2019-01-21T10:42:04.161Z,34.40
2019-01-21T10:45:48.307Z,34.23
2019-01-21T10:49:20.191Z,32.57
2019-01-21T10:53:09.784Z,36.57
2019-01-21T10:56:39.721Z,32.20
2019-01-21T11:00:29.568Z,36.60
2019-01-21T11:04:20.656Z,31.70
2019-01-21T11:08:09.292Z,35.23
2019-01-21T11:11:43.267Z,34.37
2019-01-21T11:15:12.959Z,35.60
2019-01-21T11:19:01.315Z,41.93
2019-01-21T11:22:23.379Z,36.83
2019-01-21T11:26:05.802Z,34.90
2019-01-21T11:29:58.033Z,29.33
2019-01-21T11:33:29.830Z,29.77
2019-01-21T11:36:48.163Z,25.47
2019-01-21T11:40:20.904Z,27.37
2019-01-21T11:44:06.101Z,30.23
2019-01-21T11:47:45.872Z,27.13
2019-01-21T11:51:44.310Z,21.23
2019-01-21T11:55:22.607Z,23.30
2019-01-21T11:58:59.490Z,24.37
2019-01-21T12:02:41.960Z,156.87
2019-01-21T12:06:18.994Z,77.87
2019-01-21T12:09:48.518Z,28.10
2019-01-21T12:13:23.610Z,29.90
2019-01-21T12:17:11.696Z,28.47
2019-01-21T12:21:09.941Z,27.23
2019-01-21T12:24:30.714Z,24.73
2019-01-21T12:28:10.341Z,30.30
2019-01-21T12:31:41.715Z,23.77
2019-01-21T12:35:21.314Z,26.93
2019-01-21T12:39:05.574Z,27.07
2019-01-21T12:42:26.131Z,22.80
2019-01-21T12:45:56.649Z,24.57
2019-01-21T12:49:20.933Z,29.43
2019-01-21T12:52:37.767Z,30.07
2019-01-21T12:56:08.785Z,29.33
2019-01-21T12:59:43.056Z,37.13
2019-01-21T13:03:44.557Z,54.87
2019-01-21T13:07:27.058Z,33.93
2019-01-21T13:11:41.077Z,86.33
2019-01-21T13:15:40.398Z,37.77
2019-01-21T13:19:21.559Z,34.80
2019-01-21T13:23:10.879Z,38.43
2019-01-21T13:26:47.452Z,41.80
2019-01-21T13:30:34.472Z,46.83
2019-01-21T13:34:21.489Z,35.83
2019-01-21T13:37:53.090Z,35.13
2019-01-21T13:41:51.807Z,39.83
2019-01-21T13:45:48.786Z,35.93
2019-01-21T13:49:25.622Z,32.07
2019-01-21T13:53:25.952Z,29.17
2019-01-21T13:56:43.572Z,35.33
2019-01-21T14:00:20.795Z,30.57
2019-01-21T14:04:05.618Z,34.47
2019-01-21T14:07:50.594Z,42.03
2019-01-21T14:11:46.556Z,40.73
2019-01-21T14:15:31.344Z,43.70
2019-01-21T14:19:26.177Z,43.47
2019-01-21T14:23:15.798Z,41.03
2019-01-21T14:27:13.986Z,39.57
2019-01-21T14:30:50.083Z,70.73
2019-01-21T14:34:26.459Z,61.77
2019-01-21T14:38:08.566Z,108.13
2019-01-21T14:42:10.859Z,70.00
2019-01-21T14:46:01.946Z,71.13
2019-01-21T14:49:46.474Z,61.40
2019-01-21T14:53:30.757Z,65.40
2019-01-21T14:57:16.692Z,57.30
2019-01-21T15:00:56.960Z,51.27
2019-01-21T15:04:38.065Z,54.10
2019-01-21T15:07:57.236Z,56.67
2019-01-21T15:11:28.697Z,67.97
2019-01-21T15:15:22.557Z,51.80
2019-01-21T15:19:01.411Z,76.53
2019-01-21T15:22:42.176Z,49.03
2019-01-21T15:26:28.146Z,55.53
2019-01-21T15:29:59.859Z,61.73
2019-01-21T15:33:49.445Z,65.80
2019-01-21T15:37:35.855Z,87.40
2019-01-21T15:41:22.183Z,82.93
2019-01-21T15:45:05.740Z,97.97
2019-01-21T15:48:40.705Z,91.83
2019-01-21T15:52:26.386Z,74.83
2019-01-21T15:55:52.521Z,70.47
2019-01-21T15:59:33.844Z,72.30
2019-01-21T16:03:07.745Z,57.73
2019-01-21T16:06:34.912Z,60.63
2019-01-21T16:10:07.457Z,63.00
2019-01-21T16:13:52.405Z,64.20
2019-01-21T16:17:32.641Z,64.03
2019-01-21T16:21:18.746Z,65.03
2019-01-21T16:25:04.921Z,59.03
2019-01-21T16:28:47.967Z,58.57
2019-01-21T16:32:31.568Z,59.57
2019-01-21T16:36:12.868Z,75.87
2019-01-21T16:40:15.129Z,74.20
2019-01-21T16:43:20.926Z,72.97
2019-01-21T16:46:26.650Z,62.13
2019-01-21T16:49:32.373Z,69.33
2019-01-21T16:52:38.231Z,69.53
2019-01-21T16:55:45.505Z,70.77
2019-01-21T16:58:51.319Z,70.77
2019-01-21T17:01:57.128Z,67.43
2019-01-21T17:05:02.942Z,77.33
2019-01-21T17:08:08.919Z,73.77
2019-01-21T17:11:14.768Z,65.37
2019-01-21T17:14:20.538Z,76.17
2019-01-21T17:17:26.228Z,61.90
2019-01-21T17:20:32.048Z,64.63
2019-01-21T17:23:37.775Z,70.73
2019-01-21T17:26:43.625Z,70.57
2019-01-21T17:29:49.357Z,70.50
2019-01-21T17:32:55.070Z,73.33
2019-01-21T17:36:00.895Z,72.63
2019-01-21T17:39:09.257Z,60.60
2019-01-21T17:42:15.384Z,85.53
2019-01-21T17:45:21.361Z,75.27
2019-01-21T17:48:27.091Z,73.50
2019-01-21T17:51:35.413Z,74.83
2019-01-21T17:54:41.276Z,63.10
2019-01-21T17:57:47.221Z,76.67
2019-01-21T18:00:52.986Z,66.07
2019-01-21T18:03:58.761Z,64.63
2019-01-21T18:07:04.605Z,62.53
2019-01-21T18:10:13.669Z,63.20
2019-01-21T18:13:19.505Z,59.30
2019-01-21T18:16:26.240Z,61.73
2019-01-21T18:19:31.956Z,58.97
2019-01-21T18:22:37.657Z,58.67
2019-01-21T18:25:43.382Z,53.90
2019-01-21T18:28:49.106Z,61.40
2019-01-21T18:31:54.951Z,57.40
2019-01-21T18:35:00.749Z,44.90
2019-01-21T18:38:07.249Z,50.83
2019-01-21T18:41:13.168Z,46.53
2019-01-21T18:44:18.903Z,41.37
2019-01-21T18:47:24.714Z,38.80
2019-01-21T18:50:33.750Z,38.97
2019-01-21T18:53:39.563Z,40.77
2019-01-21T18:56:45.277Z,38.27
2019-01-21T18:59:50.997Z,38.20
2019-01-21T19:02:57.803Z,33.00
2019-01-21T19:06:03.560Z,30.27
2019-01-21T19:09:10.130Z,34.27
2019-01-21T19:12:16.569Z,38.90
2019-01-21T19:15:40.625Z,36.53
2019-01-21T19:18:46.340Z,34.60
2019-01-21T19:21:53.756Z,35.10
2019-01-21T19:24:59.597Z,40.10
2019-01-21T19:28:05.433Z,31.73
2019-01-21T19:31:11.477Z,34.27
2019-01-21T19:34:18.193Z,31.63
2019-01-21T19:37:24.187Z,35.57
2019-01-21T19:40:30.151Z,35.53
2019-01-21T19:43:35.851Z,33.20
2019-01-21T19:46:44.293Z,31.33
2019-01-21T19:49:50.327Z,31.77
2019-01-21T19:52:56.259Z,31.93
2019-01-21T19:56:01.977Z,33.37
2019-01-21T19:59:07.778Z,28.93
2019-01-21T20:02:13.483Z,30.73
2019-01-21T20:05:19.304Z,30.57
2019-01-21T20:08:26.389Z,34.03
2019-01-21T20:11:34.990Z,32.10
2019-01-21T20:14:39.856Z,33.20
2019-01-21T20:17:46.225Z,34.97
2019-01-21T20:20:52.110Z,29.20
2019-01-21T20:23:57.839Z,30.20
2019-01-21T20:27:03.701Z,35.80
2019-01-21T20:30:11.620Z,34.83
2019-01-21T20:33:17.461Z,35.60
2019-01-21T20:36:23.304Z,31.37
2019-01-21T20:39:29.136Z,32.37
2019-01-21T20:42:35.032Z,33.13
2019-01-21T20:45:40.970Z,41.00
2019-01-21T20:48:46.691Z,57.00
2019-01-21T20:51:52.518Z,34.67
2019-01-21T20:54:58.273Z,32.70
2019-01-21T20:58:04.532Z,33.40
2019-01-21T21:01:10.246Z,28.23
2019-01-21T21:04:16.098Z,30.97
2019-01-21T21:07:21.830Z,31.37
2019-01-21T21:10:27.584Z,21.73
2019-01-21T21:13:33.311Z,27.00
2019-01-21T21:16:39.185Z,27.47
2019-01-21T21:19:44.923Z,34.63
2019-01-21T21:22:50.673Z,25.73
2019-01-21T21:25:56.367Z,34.03
2019-01-21T21:29:02.096Z,31.50
2019-01-21T21:32:07.852Z,30.87
2019-01-21T21:35:13.773Z,33.63
2019-01-21T21:38:19.683Z,32.90
2019-01-21T21:41:25.586Z,30.57
2019-01-21T21:44:31.304Z,33.50
2019-01-21T21:47:37.055Z,31.17
2019-01-21T21:50:43.148Z,29.17
2019-01-21T21:53:48.899Z,30.13
2019-01-21T21:56:54.926Z,29.87
2019-01-21T22:00:01.759Z,30.10
2019-01-21T22:03:07.995Z,29.23
2019-01-21T22:06:13.966Z,31.80
2019-01-21T22:09:19.721Z,28.30
2019-01-21T22:12:25.478Z,29.00
2019-01-21T22:15:31.251Z,26.73
2019-01-21T22:18:37.127Z,29.43
2019-01-21T22:21:42.867Z,29.80
2019-01-21T22:24:48.977Z,30.23
2019-01-21T22:27:54.708Z,20.53
2019-01-21T22:31:00.560Z,31.03
2019-01-21T22:34:06.504Z,27.90
2019-01-21T22:37:12.228Z,29.43
2019-01-21T22:40:19.845Z,32.10
2019-01-21T22:43:25.704Z,27.50
2019-01-21T22:46:31.424Z,28.23
2019-01-21T22:49:37.171Z,26.53
2019-01-21T22:52:42.971Z,31.13
2019-01-21T22:55:48.849Z,28.83
2019-01-21T22:58:54.574Z,24.53
2019-01-21T23:02:00.554Z,28.57
2019-01-21T23:05:07.757Z,28.50
2019-01-21T23:08:13.588Z,29.93
2019-01-21T23:11:19.320Z,33.63
2019-01-21T23:14:25.141Z,25.13
2019-01-21T23:17:30.978Z,28.13
2019-01-21T23:20:36.783Z,28.07
2019-01-21T23:23:42.968Z,30.47
2019-01-21T23:26:48.714Z,29.57
2019-01-21T23:29:54.439Z,29.73
2019-01-21T23:33:01.342Z,31.63
2019-01-21T23:36:07.254Z,30.03
2019-01-21T23:39:12.977Z,34.10
2019-01-21T23:42:19.243Z,29.97
2019-01-21T23:45:25.061Z,31.30
2019-01-21T23:48:30.761Z,31.83
2019-01-21T23:51:36.513Z,31.60
2019-01-21T23:54:42.227Z,34.67
2019-01-21T23:57:48.224Z,34.77
